Airfield :
LOGIN :

Register | Disclaimer

   EN    FR    IT 

 










Legend :    VFR   Marginal VFR   IFR   Intensive IFR   Very Intensive IFR
Visi :
Ceiling :
>= 8 km
>= 3000ft
5 to 8 km
1000 to 3000 ft
1500m to 5 km
500 to 1000 ft
800 to 1500m
200 to 500 ft
< 800m
< 200 ft
Symbols :   Thunderstorms  Fog  Heavy snow  Heavy precipitations  Wind > 20 kt
SIGMETs :     Misc.  Thunderstorms  Icing  Turbulence  Mountain Waves  Volcanic Ashes







- Airport Elevation : 1966 ft
- IATA code : SGE


EDGS - Siegerland

CURRENT METAR :
  • 260720Z 29005KT 7000 2200W -RA BCFG SCT003 BKN007 07/07 Q1012

EXPIRED METARs :
  • 260650Z 30007KT 6000 2200W -RA BCFG BKN003 06/06 Q1012
  • 260620Z 28007KT 9999 2200W -DZ BCFG BKN003 07/07 Q1011
  • 260550Z 29006KT 9999 -DZ SCT003 BKN007 07/07 Q1011

TAF TAF EDGS
Valid from the 26 at 07:00 until the 26 at 15:00 UTC


260620Z 2607/2615 27008KT 9999 BKN007
PROB30
TEMPO 2607/2609 RA OVC003
BECMG 2607/2610 SCT010 BKN020
No reported NOTAMs for that airfield.
1 SIGMET reported for the Langen FIR (EDGG) :
 
Severe icing
EDGG SIGMET 1 VALID 260720/260930 EDZF
EDGG LANGEN FIR SEV ICE FCST WI N5113 E00836 - N5112 E00933 - N4841 E00928 - N4837 E00834 - N5113 E00836 FL080/170 MOV E WKN=



MET'MAP, your aeronautical weather chart ! - Copyright ORBIFLY December 2007 - Disclaimer

ORBIFLY MET'MAP TEAM :

Programming & Development : Alexandra Zaïnal
Concept & Development : Baudouin d'Aumeries
Co-Development & Prog : Marc-Olivier Méhu
Technical & hardware support : Manuel Goepfert

Contact : metmap@orbifly.com




SOURCES & CREDITS :

   NOAA